Time;durP1;ratioP1;P1;durP2;ratioP2;P2;SDS_P1;SDS_P2;PMS_P1;PMS_P2;Temp;Humidity;BMP_temperature;BMP_pressure;BME280_temperature;BME280_humidity;BME280_pressure;Samples;Min_cycle;Max_cycle;Signal;HPM_P1;HPM_P2
2022/04/12 00:00:30;;;;;;;4.88;1.40;;;;;;;;;;5112563;28;20052;-64
2022/04/12 00:02:56;;;;;;;5.35;1.17;;;;;;;;;;5112817;28;20020;-65
2022/04/12 00:05:22;;;;;;;4.30;1.30;;;;;;;;;;5112639;28;20042;-65
2022/04/12 00:07:48;;;;;;;4.50;1.63;;;;;;;;;;5112363;28;20027;-65
2022/04/12 00:10:15;;;;;;;4.47;1.40;;;;;;;;;;5112665;28;20031;-64
2022/04/12 00:12:42;;;;;;;4.60;1.20;;;;;;;;;;5112774;28;20102;-64
2022/04/12 00:15:09;;;;;;;2.75;1.10;;;;;;;;;;5112565;28;20020;-65
2022/04/12 00:20:28;;;;;;;4.78;1.40;;;;;;;;;;5075500;28;20039;-64
2022/04/12 00:22:54;;;;;;;5.05;1.45;;;;;;;;;;5092214;28;20031;-64
2022/04/12 00:25:22;;;;;;;3.85;1.52;;;;;;;;;;5092047;28;20063;-65
2022/04/12 00:27:48;;;;;;;3.53;1.20;;;;;;;;;;5092145;28;20016;-65
2022/04/12 00:30:15;;;;;;;5.30;1.63;;;;;;;;;;5106999;28;20066;-64
2022/04/12 00:32:41;;;;;;;4.15;1.30;;;;;;;;;;5112202;28;20495;-65
2022/04/12 00:35:07;;;;;;;3.22;1.27;;;;;;;;;;5112270;28;20103;-65
2022/04/12 00:37:34;;;;;;;4.45;1.42;;;;;;;;;;5112378;28;20019;-65
2022/04/12 00:40:00;;;;;;;3.78;1.33;;;;;;;;;;5111419;28;20024;-64
2022/04/12 00:42:26;;;;;;;3.28;1.35;;;;;;;;;;5111686;28;20100;-64
2022/04/12 00:44:52;;;;;;;3.10;1.30;;;;;;;;;;5112233;28;20028;-65
2022/04/12 00:47:18;;;;;;;3.55;1.20;;;;;;;;;;5110538;28;20067;-65
2022/04/12 00:49:44;;;;;;;2.85;1.15;;;;;;;;;;5111781;28;20503;-64
2022/04/12 00:52:11;;;;;;;3.92;1.02;;;;;;;;;;5111590;28;20027;-63
2022/04/12 00:54:39;;;;;;;2.58;1.02;;;;;;;;;;5111743;28;20091;-64
2022/04/12 00:57:06;;;;;;;4.93;1.50;;;;;;;;;;5112023;28;20644;-64
2022/04/12 00:59:32;;;;;;;3.17;1.15;;;;;;;;;;5111841;28;20034;-64
2022/04/12 01:01:58;;;;;;;5.13;1.02;;;;;;;;;;5111749;28;20024;-64
2022/04/12 01:04:25;;;;;;;3.25;1.30;;;;;;;;;;5112061;28;20035;-64
2022/04/12 01:06:51;;;;;;;3.38;1.00;;;;;;;;;;5111908;28;20388;-65
2022/04/12 01:09:17;;;;;;;2.85;1.20;;;;;;;;;;5092461;28;20579;-65
2022/04/12 01:11:48;;;;;;;4.68;1.20;;;;;;;;;;5092722;28;20039;-65
2022/04/12 01:14:15;;;;;;;4.70;1.30;;;;;;;;;;5111787;28;20102;-65
2022/04/12 01:16:41;;;;;;;3.38;1.27;;;;;;;;;;5111960;28;20049;-65
2022/04/12 01:19:07;;;;;;;7.15;1.40;;;;;;;;;;5111993;28;20090;-66
2022/04/12 01:21:40;;;;;;;3.80;1.45;;;;;;;;;;5111900;28;20030;-65
2022/04/12 01:24:06;;;;;;;;;;;;;;;;;;5112307;28;20114;-65
2022/04/12 01:26:32;;;;;;;5.18;1.25;;;;;;;;;;5111354;28;20014;-64
2022/04/12 01:28:58;;;;;;;4.38;1.08;;;;;;;;;;5111224;28;20016;-65
2022/04/12 01:31:25;;;;;;;3.80;1.40;;;;;;;;;;5111030;28;20020;-64
2022/04/12 01:33:52;;;;;;;3.63;1.17;;;;;;;;;;5110541;28;20102;-64
2022/04/12 01:36:18;;;;;;;3.83;1.17;;;;;;;;;;5111050;28;20024;-65
2022/04/12 01:38:44;;;;;;;4.47;1.20;;;;;;;;;;5110927;28;20040;-65
2022/04/12 01:41:10;;;;;;;7.18;1.38;;;;;;;;;;5110789;28;20059;-65
2022/04/12 01:43:36;;;;;;;4.25;1.20;;;;;;;;;;5111148;28;20046;-65
2022/04/12 01:46:02;;;;;;;3.15;1.33;;;;;;;;;;5111205;28;20084;-66
2022/04/12 01:48:28;;;;;;;5.00;1.50;;;;;;;;;;5111352;28;20031;-64
2022/04/12 01:50:54;;;;;;;5.18;1.33;;;;;;;;;;5111034;28;20111;-64
2022/04/12 01:53:20;;;;;;;3.97;1.23;;;;;;;;;;5114326;28;20035;-64
2022/04/12 01:55:46;;;;;;;6.80;1.85;;;;;;;;;;5115360;28;20030;-65
2022/04/12 01:58:13;;;;;;;8.05;1.45;;;;;;;;;;5115303;28;20024;-64
2022/04/12 02:00:40;;;;;;;3.88;1.40;;;;;;;;;;5115264;28;20622;-66
2022/04/12 02:03:06;;;;;;;3.45;1.50;;;;;;;;;;5114765;28;20024;-65
2022/04/12 02:05:33;;;;;;;4.25;1.50;;;;;;;;;;5114850;28;20024;-66
2022/04/12 02:07:59;;;;;;;4.45;1.48;;;;;;;;;;5115133;28;20035;-66
2022/04/12 02:10:25;;;;;;;4.10;1.20;;;;;;;;;;5115133;28;20069;-65
2022/04/12 02:12:51;;;;;;;4.72;1.77;;;;;;;;;;5114612;28;20597;-65
2022/04/12 02:15:17;;;;;;;5.43;1.50;;;;;;;;;;5114948;28;20132;-66
2022/04/12 02:17:43;;;;;;;8.70;1.90;;;;;;;;;;5114987;28;20023;-66
2022/04/12 02:20:09;;;;;;;5.30;1.48;;;;;;;;;;5114786;28;20047;-65
2022/04/12 02:22:36;;;;;;;2.40;1.10;;;;;;;;;;5114302;28;20043;-66
2022/04/12 02:25:03;;;;;;;4.18;1.27;;;;;;;;;;5114473;28;20019;-66
2022/04/12 02:27:29;;;;;;;3.78;1.25;;;;;;;;;;5114596;28;20048;-66
2022/04/12 02:29:55;;;;;;;4.28;1.20;;;;;;;;;;5114518;28;20051;-66
2022/04/12 02:32:21;;;;;;;3.60;1.17;;;;;;;;;;5114406;28;20023;-65
2022/04/12 02:34:47;;;;;;;3.97;1.60;;;;;;;;;;5114031;28;20039;-65
2022/04/12 02:37:13;;;;;;;4.22;1.58;;;;;;;;;;5114321;28;20031;-64
2022/04/12 02:39:39;;;;;;;3.97;1.20;;;;;;;;;;5114513;28;20046;-65
2022/04/12 02:42:06;;;;;;;3.28;1.20;;;;;;;;;;5114266;28;20031;-65
2022/04/12 02:44:32;;;;;;;3.83;1.15;;;;;;;;;;5113982;28;20039;-64
2022/04/12 02:46:58;;;;;;;4.28;1.30;;;;;;;;;;5098067;28;20043;-65
2022/04/12 02:49:24;;;;;;;5.38;1.13;;;;;;;;;;5092734;28;20103;-64
2022/04/12 02:51:51;;;;;;;3.47;1.30;;;;;;;;;;5093746;28;20069;-65
2022/04/12 02:54:17;;;;;;;4.40;1.05;;;;;;;;;;5102812;28;20042;-65
2022/04/12 02:56:43;;;;;;;2.40;1.00;;;;;;;;;;5113945;28;20059;-66
2022/04/12 02:59:09;;;;;;;2.40;1.05;;;;;;;;;;5113894;28;20069;-66
2022/04/12 03:01:36;;;;;;;3.25;1.10;;;;;;;;;;5112939;28;20020;-65
2022/04/12 03:04:02;;;;;;;3.25;1.13;;;;;;;;;;5112009;28;20019;-65
2022/04/12 03:06:28;;;;;;;3.67;1.00;;;;;;;;;;5113598;28;20034;-65
2022/04/12 03:08:54;;;;;;;3.28;1.30;;;;;;;;;;5112216;28;20028;-65
2022/04/12 03:11:20;;;;;;;2.63;1.20;;;;;;;;;;5095543;28;20060;-64
2022/04/12 03:13:47;;;;;;;3.38;1.27;;;;;;;;;;5113657;28;20110;-64
2022/04/12 03:16:13;;;;;;;2.80;1.10;;;;;;;;;;5113782;28;20094;-64
2022/04/12 03:18:39;;;;;;;3.50;0.95;;;;;;;;;;5113737;28;20020;-64
2022/04/12 03:21:05;;;;;;;2.47;1.13;;;;;;;;;;5113568;28;20658;-64
2022/04/12 03:23:31;;;;;;;2.72;1.02;;;;;;;;;;5113258;28;20033;-64
2022/04/12 03:25:57;;;;;;;2.33;1.08;;;;;;;;;;5113301;28;20024;-64
2022/04/12 03:28:23;;;;;;;2.17;1.13;;;;;;;;;;5113423;28;20024;-64
2022/04/12 03:30:49;;;;;;;3.22;1.38;;;;;;;;;;5113274;28;20016;-64
2022/04/12 03:33:15;;;;;;;5.05;1.35;;;;;;;;;;5095054;28;20475;-65
2022/04/12 03:35:43;;;;;;;3.05;0.85;;;;;;;;;;5113384;28;20019;-65
2022/04/12 03:38:09;;;;;;;4.90;1.02;;;;;;;;;;5113458;28;20030;-65
2022/04/12 03:40:35;;;;;;;2.42;0.93;;;;;;;;;;5113337;28;20078;-65
2022/04/12 03:43:02;;;;;;;3.65;1.17;;;;;;;;;;5112699;28;20050;-64
2022/04/12 03:45:28;;;;;;;2.38;0.85;;;;;;;;;;5092525;28;20028;-64
2022/04/12 03:47:55;;;;;;;2.53;1.08;;;;;;;;;;5092221;28;20028;-64
2022/04/12 03:50:22;;;;;;;3.70;1.30;;;;;;;;;;5092811;28;20012;-64
2022/04/12 03:52:48;;;;;;;2.78;0.90;;;;;;;;;;5104599;28;20051;-64
2022/04/12 03:55:14;;;;;;;5.03;1.15;;;;;;;;;;5112930;28;20028;-64
2022/04/12 03:57:40;;;;;;;6.63;1.23;;;;;;;;;;5112767;28;20072;-64
2022/04/12 04:00:08;;;;;;;5.65;1.58;;;;;;;;;;5112709;28;20015;-64
2022/04/12 04:02:37;;;;;;;4.25;0.80;;;;;;;;;;5112118;28;20012;-64
2022/04/12 04:05:03;;;;;;;5.38;1.00;;;;;;;;;;5112651;28;20049;-64
2022/04/12 04:07:29;;;;;;;6.63;1.00;;;;;;;;;;5112588;28;20024;-64
2022/04/12 04:09:55;;;;;;;2.33;0.98;;;;;;;;;;5112622;28;20024;-64
2022/04/12 04:12:22;;;;;;;3.10;0.90;;;;;;;;;;5112602;28;20111;-64
2022/04/12 04:14:49;;;;;;;1.88;0.90;;;;;;;;;;5111827;28;20015;-64
2022/04/12 04:17:15;;;;;;;2.60;1.00;;;;;;;;;;5112174;28;20371;-64
2022/04/12 04:19:41;;;;;;;4.63;1.10;;;;;;;;;;5112467;28;20258;-64
2022/04/12 04:22:07;;;;;;;3.03;1.02;;;;;;;;;;5112652;28;20020;-64
2022/04/12 04:24:33;;;;;;;2.75;0.90;;;;;;;;;;5112285;28;20080;-64
2022/04/12 04:26:59;;;;;;;4.00;1.17;;;;;;;;;;5112365;28;20331;-64
2022/04/12 04:29:32;;;;;;;2.28;1.02;;;;;;;;;;5112334;28;20020;-65
2022/04/12 04:31:58;;;;;;;3.78;1.20;;;;;;;;;;5112151;28;20030;-65
2022/04/12 04:34:24;;;;;;;3.97;1.30;;;;;;;;;;5112166;28;20106;-65
2022/04/12 04:36:50;;;;;;;2.22;0.95;;;;;;;;;;5112098;28;20479;-65
2022/04/12 04:39:16;;;;;;;7.55;0.95;;;;;;;;;;5112368;28;20107;-65
2022/04/12 04:41:43;;;;;;;2.83;0.88;;;;;;;;;;5112182;28;20020;-65
2022/04/12 04:44:09;;;;;;;2.70;1.00;;;;;;;;;;5111858;28;20501;-65
2022/04/12 04:46:35;;;;;;;2.40;0.90;;;;;;;;;;5111971;28;20108;-65
2022/04/12 04:49:01;;;;;;;2.42;0.80;;;;;;;;;;5112187;28;20023;-65
2022/04/12 04:51:27;;;;;;;2.78;1.00;;;;;;;;;;5112027;28;20059;-65
2022/04/12 04:53:58;;;;;;;2.20;0.90;;;;;;;;;;5111874;28;20027;-65
2022/04/12 04:56:27;;;;;;;2.60;0.90;;;;;;;;;;5112060;28;20047;-65
2022/04/12 04:58:54;;;;;;;4.30;1.00;;;;;;;;;;5112015;28;20020;-65
2022/04/12 05:01:20;;;;;;;3.63;0.90;;;;;;;;;;5111848;28;20024;-65
2022/04/12 05:03:47;;;;;;;2.90;1.02;;;;;;;;;;5111966;28;20015;-66
2022/04/12 05:06:13;;;;;;;2.72;1.08;;;;;;;;;;5093699;28;20032;-65
2022/04/12 05:08:39;;;;;;;2.05;0.88;;;;;;;;;;5111871;28;20012;-65
2022/04/12 05:11:05;;;;;;;2.50;0.95;;;;;;;;;;5110297;28;20024;-65
2022/04/12 05:13:31;;;;;;;3.47;1.23;;;;;;;;;;5111823;28;20019;-65
2022/04/12 05:15:57;;;;;;;6.40;1.20;;;;;;;;;;5111728;28;20049;-66
2022/04/12 05:18:23;;;;;;;2.67;1.30;;;;;;;;;;5111697;28;20023;-65
2022/04/12 05:20:49;;;;;;;4.68;1.40;;;;;;;;;;5111750;28;20351;-65
2022/04/12 05:23:16;;;;;;;4.15;1.02;;;;;;;;;;5111538;28;20099;-64
2022/04/12 05:25:42;;;;;;;7.72;1.17;;;;;;;;;;5111484;28;20030;-64
2022/04/12 05:28:08;;;;;;;2.42;1.02;;;;;;;;;;5114936;28;20031;-64
2022/04/12 05:30:34;;;;;;;6.43;1.50;;;;;;;;;;5115152;28;20487;-65
2022/04/12 05:33:01;;;;;;;9.23;1.73;;;;;;;;;;5115167;28;20454;-65
2022/04/12 05:35:27;;;;;;;4.43;1.05;;;;;;;;;;5114942;28;20030;-65
2022/04/12 05:37:54;;;;;;;5.00;1.50;;;;;;;;;;5114727;28;20032;-66
2022/04/12 05:40:22;;;;;;;5.07;1.15;;;;;;;;;;5100059;28;20368;-64
2022/04/12 05:42:48;;;;;;;14.68;1.90;;;;;;;;;;5113978;28;20494;-63
2022/04/12 05:45:15;;;;;;;8.63;2.13;;;;;;;;;;5095645;28;20036;-64
2022/04/12 05:47:41;;;;;;;7.32;1.60;;;;;;;;;;5114511;28;20051;-64
2022/04/12 05:50:08;;;;;;;5.63;1.60;;;;;;;;;;5097943;28;20020;-64
2022/04/12 05:52:34;;;;;;;7.72;2.17;;;;;;;;;;5114613;28;20034;-65
2022/04/12 05:55:00;;;;;;;6.47;1.90;;;;;;;;;;5096220;28;20478;-64
2022/04/12 05:57:26;;;;;;;12.40;2.22;;;;;;;;;;5115123;28;20491;-64
2022/04/12 05:59:52;;;;;;;9.68;1.90;;;;;;;;;;5114921;28;20131;-64
2022/04/12 06:02:18;;;;;;;6.53;1.88;;;;;;;;;;5115191;28;20031;-64
2022/04/12 06:04:44;;;;;;;9.40;1.77;;;;;;;;;;5115106;28;20023;-64
2022/04/12 06:07:10;;;;;;;4.82;1.65;;;;;;;;;;5115022;28;20483;-64
2022/04/12 06:09:36;;;;;;;6.75;2.20;;;;;;;;;;5104422;28;20016;-64
2022/04/12 06:12:02;;;;;;;8.60;2.00;;;;;;;;;;5112729;28;20386;-64
2022/04/12 06:14:28;;;;;;;9.35;1.80;;;;;;;;;;5112778;28;20024;-64
2022/04/12 06:16:54;;;;;;;12.38;2.47;;;;;;;;;;5112827;28;20030;-64
2022/04/12 06:19:21;;;;;;;8.90;2.40;;;;;;;;;;5112940;28;20027;-65
2022/04/12 06:21:47;;;;;;;7.20;2.13;;;;;;;;;;5112675;28;20035;-64
2022/04/12 06:24:13;;;;;;;21.85;2.60;;;;;;;;;;5113946;28;20019;-64
2022/04/12 06:26:39;;;;;;;14.40;2.05;;;;;;;;;;5114211;28;20038;-65
2022/04/12 06:29:05;;;;;;;6.82;1.90;;;;;;;;;;5113869;28;20016;-64
2022/04/12 06:31:31;;;;;;;9.80;2.78;;;;;;;;;;5114306;28;20062;-63
2022/04/12 06:33:57;;;;;;;7.80;2.05;;;;;;;;;;5109881;28;20030;-63
2022/04/12 06:36:24;;;;;;;5.30;1.95;;;;;;;;;;5105687;28;20025;-63
2022/04/12 06:38:50;;;;;;;4.55;1.83;;;;;;;;;;5106033;28;20031;-63
2022/04/12 06:41:17;;;;;;;4.47;1.60;;;;;;;;;;5094789;28;20099;-63
2022/04/12 06:43:43;;;;;;;6.75;1.83;;;;;;;;;;5113544;28;20521;-63
2022/04/12 06:46:10;;;;;;;6.95;1.67;;;;;;;;;;5113683;28;20048;-63
2022/04/12 06:48:36;;;;;;;4.20;1.60;;;;;;;;;;5101696;28;20082;-63
2022/04/12 06:51:02;;;;;;;5.63;1.98;;;;;;;;;;5105695;28;20022;-63
2022/04/12 06:53:28;;;;;;;5.97;1.90;;;;;;;;;;5093614;28;20103;-63
2022/04/12 06:55:54;;;;;;;7.53;1.52;;;;;;;;;;5111132;28;20020;-64
2022/04/12 06:58:20;;;;;;;4.53;1.73;;;;;;;;;;5113947;28;20086;-63
2022/04/12 07:00:46;;;;;;;4.18;1.90;;;;;;;;;;5113925;28;20058;-63
2022/04/12 07:03:12;;;;;;;4.80;1.70;;;;;;;;;;5113845;28;20024;-63
2022/04/12 07:05:38;;;;;;;7.93;2.22;;;;;;;;;;5113306;28;20031;-64
2022/04/12 07:08:05;;;;;;;6.65;2.13;;;;;;;;;;5113780;28;20031;-63
2022/04/12 07:10:31;;;;;;;4.10;1.80;;;;;;;;;;5113543;28;20027;-64
2022/04/12 07:12:57;;;;;;;5.78;1.92;;;;;;;;;;5113613;28;20030;-63
2022/04/12 07:15:23;;;;;;;4.22;1.75;;;;;;;;;;5094800;28;20614;-63
2022/04/12 07:17:49;;;;;;;6.55;1.92;;;;;;;;;;5113514;28;20114;-63
2022/04/12 07:20:15;;;;;;;7.90;2.20;;;;;;;;;;5113747;28;20034;-64
2022/04/12 07:22:41;;;;;;;4.28;1.90;;;;;;;;;;5095061;28;20355;-64
2022/04/12 07:25:08;;;;;;;5.78;2.00;;;;;;;;;;5112604;28;20031;-64
2022/04/12 07:27:36;;;;;;;5.35;1.77;;;;;;;;;;5108107;28;20067;-64
2022/04/12 07:30:03;;;;;;;4.80;2.15;;;;;;;;;;5109028;28;20510;-64
2022/04/12 07:32:29;;;;;;;19.50;2.72;;;;;;;;;;5107534;28;20032;-63
2022/04/12 07:34:55;;;;;;;10.10;2.05;;;;;;;;;;5112625;28;20077;-63
2022/04/12 07:37:22;;;;;;;6.13;2.00;;;;;;;;;;5113215;28;20027;-63
2022/04/12 07:39:48;;;;;;;6.25;2.13;;;;;;;;;;5112985;28;20024;-63
2022/04/12 07:42:14;;;;;;;5.65;2.13;;;;;;;;;;5094576;28;20386;-63
2022/04/12 07:44:40;;;;;;;5.28;1.95;;;;;;;;;;5112463;28;20027;-63
2022/04/12 07:47:06;;;;;;;7.22;1.95;;;;;;;;;;5112566;28;20063;-61
2022/04/12 07:49:32;;;;;;;4.47;2.10;;;;;;;;;;5111413;28;20070;-62
2022/04/12 07:51:58;;;;;;;6.68;2.22;;;;;;;;;;5112147;28;20106;-61
2022/04/12 07:54:25;;;;;;;4.50;2.10;;;;;;;;;;5111706;28;20102;-63
2022/04/12 07:56:51;;;;;;;4.85;2.10;;;;;;;;;;5111848;28;20359;-62
2022/04/12 07:59:17;;;;;;;5.22;2.08;;;;;;;;;;5096536;28;20024;-62
2022/04/12 08:01:44;;;;;;;4.57;1.90;;;;;;;;;;5092219;28;20035;-62
2022/04/12 08:04:10;;;;;;;4.18;1.95;;;;;;;;;;5074099;28;20028;-63
2022/04/12 08:06:36;;;;;;;6.75;2.03;;;;;;;;;;5103359;28;20071;-62
2022/04/12 08:09:02;;;;;;;7.22;2.22;;;;;;;;;;5108404;28;20023;-62
2022/04/12 08:11:28;;;;;;;4.93;2.00;;;;;;;;;;5092304;28;20028;-62
2022/04/12 08:13:54;;;;;;;7.32;2.33;;;;;;;;;;5092263;28;20024;-63
2022/04/12 08:16:20;;;;;;;6.72;2.42;;;;;;;;;;5092300;28;20499;-63
2022/04/12 08:18:47;;;;;;;5.40;2.42;;;;;;;;;;5091962;28;20042;-63
2022/04/12 08:21:13;;;;;;;5.35;2.10;;;;;;;;;;5098720;28;20467;-64
2022/04/12 08:23:39;;;;;;;5.75;2.00;;;;;;;;;;5110918;28;20103;-64
2022/04/12 08:26:05;;;;;;;5.28;2.55;;;;;;;;;;5105617;28;20391;-64
2022/04/12 08:28:31;;;;;;;5.45;2.15;;;;;;;;;;5112019;28;20057;-64
2022/04/12 08:30:57;;;;;;;6.47;2.20;;;;;;;;;;5112166;28;20044;-63
2022/04/12 08:33:23;;;;;;;8.18;2.70;;;;;;;;;;5107055;28;20027;-62
2022/04/12 08:35:49;;;;;;;5.90;2.30;;;;;;;;;;5104911;28;20028;-63
2022/04/12 08:38:15;;;;;;;9.18;2.83;;;;;;;;;;5111473;28;20035;-62
2022/04/12 08:40:41;;;;;;;9.57;2.40;;;;;;;;;;5110406;28;20031;-62
2022/04/12 08:43:08;;;;;;;5.03;2.42;;;;;;;;;;5112087;28;20075;-63
2022/04/12 08:45:36;;;;;;;6.47;2.08;;;;;;;;;;5111810;28;20088;-62
2022/04/12 08:48:02;;;;;;;7.80;2.28;;;;;;;;;;5111460;28;20107;-63
2022/04/12 08:50:29;;;;;;;8.82;2.53;;;;;;;;;;5110781;28;20404;-63
2022/04/12 08:52:55;;;;;;;7.47;2.40;;;;;;;;;;5105662;28;20031;-63
2022/04/12 08:55:21;;;;;;;4.82;2.30;;;;;;;;;;5109087;28;20024;-63
2022/04/12 08:57:47;;;;;;;4.50;2.00;;;;;;;;;;5111693;28;20024;-64
2022/04/12 09:00:13;;;;;;;5.80;2.38;;;;;;;;;;5111687;28;20019;-64
2022/04/12 09:02:40;;;;;;;5.15;2.10;;;;;;;;;;5105648;28;20024;-62
2022/04/12 09:05:06;;;;;;;4.80;2.20;;;;;;;;;;5104409;28;20028;-62
2022/04/12 09:07:32;;;;;;;6.78;2.03;;;;;;;;;;5091085;28;20042;-63
2022/04/12 09:10:08;;;;;;;4.80;2.30;;;;;;;;;;5110857;28;20471;-61
2022/04/12 09:12:35;;;;;;;4.90;2.08;;;;;;;;;;5089496;28;20031;-61
2022/04/12 09:15:02;;;;;;;5.03;2.05;;;;;;;;;;5111925;28;20484;-61
2022/04/12 09:17:28;;;;;;;5.40;2.35;;;;;;;;;;5111720;28;20055;-61
2022/04/12 09:19:55;;;;;;;4.90;2.00;;;;;;;;;;5111670;28;20111;-63
2022/04/12 09:22:25;;;;;;;5.70;2.30;;;;;;;;;;5094459;28;20016;-62
2022/04/12 09:24:58;;;;;;;5.65;2.17;;;;;;;;;;5091072;28;20032;-63
2022/04/12 09:27:26;;;;;;;7.38;2.60;;;;;;;;;;5091275;28;20032;-63
2022/04/12 09:29:56;;;;;;;5.65;2.30;;;;;;;;;;5102708;28;20027;-65
2022/04/12 09:32:26;;;;;;;5.47;2.30;;;;;;;;;;5111300;28;20024;-63
2022/04/12 09:34:53;;;;;;;6.07;2.08;;;;;;;;;;5111519;28;20502;-63
2022/04/12 09:37:26;;;;;;;4.88;2.20;;;;;;;;;;5111883;28;20034;-62
2022/04/12 09:39:55;;;;;;;4.90;2.20;;;;;;;;;;5111661;28;20015;-63
2022/04/12 09:42:42;;;;;;;5.82;2.20;;;;;;;;;;5099773;28;20055;-63
2022/04/12 09:45:10;;;;;;;5.88;2.38;;;;;;;;;;5090735;28;20032;-63
2022/04/12 09:47:36;;;;;;;6.25;2.00;;;;;;;;;;5091090;28;20036;-61
2022/04/12 09:50:02;;;;;;;7.15;2.22;;;;;;;;;;5091039;28;20101;-63
2022/04/12 09:52:29;;;;;;;7.05;2.13;;;;;;;;;;5100366;28;20443;-63
2022/04/12 09:54:55;;;;;;;5.85;2.05;;;;;;;;;;5111140;28;20034;-63
2022/04/12 09:57:22;;;;;;;5.57;1.95;;;;;;;;;;5111499;28;20020;-64
2022/04/12 09:59:48;;;;;;;4.82;2.05;;;;;;;;;;5111633;28;20463;-63
2022/04/12 10:02:15;;;;;;;4.82;1.73;;;;;;;;;;5111061;28;20012;-62
2022/04/12 10:04:43;;;;;;;7.15;1.65;;;;;;;;;;5111018;28;20228;-63
2022/04/12 10:07:10;;;;;;;8.52;1.70;;;;;;;;;;5111288;28;20479;-64
2022/04/12 10:09:37;;;;;;;9.15;2.00;;;;;;;;;;5110417;28;20020;-63
2022/04/12 10:12:06;;;;;;;5.72;1.60;;;;;;;;;;5109951;28;20031;-64
2022/04/12 10:14:32;;;;;;;4.93;1.63;;;;;;;;;;5113075;28;20015;-64
2022/04/12 10:16:58;;;;;;;3.80;1.75;;;;;;;;;;5114716;28;20396;-64
2022/04/12 10:19:25;;;;;;;11.20;1.85;;;;;;;;;;5114817;28;20011;-62
2022/04/12 10:21:51;;;;;;;6.25;1.45;;;;;;;;;;5114643;28;20023;-63
2022/04/12 10:24:18;;;;;;;4.88;1.70;;;;;;;;;;5113276;28;20055;-63
2022/04/12 10:26:47;;;;;;;4.97;1.70;;;;;;;;;;5105627;28;20036;-62
2022/04/12 10:29:15;;;;;;;6.03;1.90;;;;;;;;;;5113624;28;20089;-62
2022/04/12 10:31:54;;;;;;;4.53;1.58;;;;;;;;;;5113463;28;20459;-63
2022/04/12 10:34:20;;;;;;;5.00;1.98;;;;;;;;;;5113269;28;20023;-64
2022/04/12 10:36:58;;;;;;;5.13;1.77;;;;;;;;;;5113619;28;20031;-62
2022/04/12 10:39:30;;;;;;;5.10;1.58;;;;;;;;;;5113570;28;20028;-62
2022/04/12 10:41:58;;;;;;;5.00;1.45;;;;;;;;;;5113529;28;20028;-62
2022/04/12 10:44:25;;;;;;;2.95;1.27;;;;;;;;;;5112269;28;20398;-63
2022/04/12 10:46:51;;;;;;;7.72;1.70;;;;;;;;;;5113434;28;20027;-63
2022/04/12 10:49:19;;;;;;;6.53;1.42;;;;;;;;;;5113298;28;20024;-64
2022/04/12 10:51:46;;;;;;;6.28;1.77;;;;;;;;;;5113099;28;20027;-64
2022/04/12 10:54:29;;;;;;;7.60;1.33;;;;;;;;;;5113425;28;20577;-63
2022/04/12 10:57:14;;;;;;;3.97;1.65;;;;;;;;;;5113378;28;20032;-64
2022/04/12 10:59:40;;;;;;;4.68;1.42;;;;;;;;;;5113088;28;20084;-63
2022/04/12 11:02:12;;;;;;;3.95;1.23;;;;;;;;;;5113900;28;20352;-63
2022/04/12 11:04:38;;;;;;;7.75;1.58;;;;;;;;;;5113537;28;20031;-63
2022/04/12 11:07:07;;;;;;;8.80;1.70;;;;;;;;;;5114585;28;20043;-64
2022/04/12 11:09:33;;;;;;;7.10;1.30;;;;;;;;;;5115228;28;20054;-64
2022/04/12 11:12:01;;;;;;;4.03;1.40;;;;;;;;;;5114571;28;20028;-63
2022/04/12 11:14:32;;;;;;;3.60;1.20;;;;;;;;;;5113659;28;20406;-63
2022/04/12 11:17:02;;;;;;;3.35;1.13;;;;;;;;;;5113773;28;20084;-63
2022/04/12 11:19:29;;;;;;;2.75;1.13;;;;;;;;;;5113654;28;20020;-64
2022/04/12 11:21:55;;;;;;;5.60;1.35;;;;;;;;;;5113723;28;20030;-64
2022/04/12 11:24:25;;;;;;;4.50;1.52;;;;;;;;;;5113127;28;20020;-64
2022/04/12 11:27:10;;;;;;;3.20;1.27;;;;;;;;;;5113044;28;20043;-64
2022/04/12 11:29:37;;;;;;;4.05;1.50;;;;;;;;;;5113725;28;20444;-63
2022/04/12 11:32:04;;;;;;;8.05;1.23;;;;;;;;;;5103385;28;20110;-61
2022/04/12 11:34:31;;;;;;;3.33;1.40;;;;;;;;;;5101270;28;20116;-64
2022/04/12 11:37:01;;;;;;;2.67;1.20;;;;;;;;;;5104108;28;20023;-65
2022/04/12 11:39:27;;;;;;;2.63;1.25;;;;;;;;;;5097791;28;20103;-63
2022/04/12 11:41:57;;;;;;;2.67;1.30;;;;;;;;;;5113270;28;20053;-65
2022/04/12 11:44:23;;;;;;;2.88;1.25;;;;;;;;;;5111799;28;20067;-64
2022/04/12 11:47:01;;;;;;;3.00;1.30;;;;;;;;;;5112486;28;20039;-65
2022/04/12 11:49:31;;;;;;;2.38;1.20;;;;;;;;;;5111083;28;20069;-64
2022/04/12 11:52:01;;;;;;;4.97;1.30;;;;;;;;;;5093460;28;20028;-64
2022/04/12 11:54:28;;;;;;;4.00;1.55;;;;;;;;;;5112487;28;20023;-65
2022/04/12 11:57:04;;;;;;;3.70;1.48;;;;;;;;;;5111926;28;20102;-63
2022/04/12 11:59:30;;;;;;;3.88;1.67;;;;;;;;;;5097459;28;20016;-63
2022/04/12 12:02:01;;;;;;;3.00;1.25;;;;;;;;;;5108585;28;20031;-62
2022/04/12 12:04:31;;;;;;;3.08;1.30;;;;;;;;;;5112776;28;20471;-63
2022/04/12 12:07:02;;;;;;;5.18;1.67;;;;;;;;;;5094145;28;20533;-63
2022/04/12 12:09:28;;;;;;;3.92;1.40;;;;;;;;;;5111250;28;20449;-64
2022/04/12 12:11:58;;;;;;;4.82;1.67;;;;;;;;;;5094662;28;20413;-62
2022/04/12 12:14:25;;;;;;;3.47;1.33;;;;;;;;;;5112024;28;20019;-66
2022/04/12 12:17:01;;;;;;;2.58;1.20;;;;;;;;;;5112723;28;20020;-63
2022/04/12 12:19:27;;;;;;;4.03;1.20;;;;;;;;;;5112372;28;20023;-63
2022/04/12 12:21:53;;;;;;;4.70;1.30;;;;;;;;;;5112583;28;20027;-62
2022/04/12 12:24:19;;;;;;;4.75;1.60;;;;;;;;;;5111548;28;20024;-62
2022/04/12 12:26:45;;;;;;;3.28;1.38;;;;;;;;;;5112264;28;20032;-62
2022/04/12 12:29:12;;;;;;;5.47;1.40;;;;;;;;;;5112285;28;20128;-63
2022/04/12 12:31:42;;;;;;;4.90;1.35;;;;;;;;;;5112268;28;20063;-65
2022/04/12 12:34:08;;;;;;;2.75;1.33;;;;;;;;;;5111919;28;20047;-64
2022/04/12 12:36:34;;;;;;;6.13;1.17;;;;;;;;;;5111452;28;20031;-63
2022/04/12 12:39:07;;;;;;;4.57;1.42;;;;;;;;;;5112342;28;20047;-65
2022/04/12 12:41:33;;;;;;;3.50;1.55;;;;;;;;;;5112413;28;20027;-65
2022/04/12 12:44:00;;;;;;;2.60;1.20;;;;;;;;;;5111018;28;20040;-65
2022/04/12 12:46:34;;;;;;;3.03;1.48;;;;;;;;;;5111834;28;20104;-65
2022/04/12 12:49:13;;;;;;;3.10;1.30;;;;;;;;;;5112202;28;20014;-63
2022/04/12 12:51:40;;;;;;;5.63;1.75;;;;;;;;;;5111979;28;20019;-65
2022/04/12 12:54:08;;;;;;;7.18;1.85;;;;;;;;;;5111806;28;20020;-65
2022/04/12 12:56:35;;;;;;;4.72;1.30;;;;;;;;;;5112115;28;20438;-65
2022/04/12 12:59:17;;;;;;;8.20;1.88;;;;;;;;;;5111970;28;20080;-64
2022/04/12 13:01:44;;;;;;;4.05;1.80;;;;;;;;;;5112164;28;20120;-64
2022/04/12 13:04:24;;;;;;;6.28;1.38;;;;;;;;;;5111360;28;20501;-63
2022/04/12 13:07:01;;;;;;;4.55;1.40;;;;;;;;;;5111646;28;20058;-66
2022/04/12 13:09:27;;;;;;;7.40;1.90;;;;;;;;;;5111867;28;20493;-63
2022/04/12 13:11:53;;;;;;;4.20;1.85;;;;;;;;;;5111801;28;21074;-65
2022/04/12 13:14:19;;;;;;;5.65;1.45;;;;;;;;;;5111428;28;20008;-65
2022/04/12 13:16:45;;;;;;;7.30;1.67;;;;;;;;;;5111418;28;20024;-63
2022/04/12 13:19:11;;;;;;;7.75;1.48;;;;;;;;;;5111820;28;20026;-64
2022/04/12 13:21:37;;;;;;;6.20;1.55;;;;;;;;;;5111762;28;20382;-65
2022/04/12 13:24:03;;;;;;;4.43;1.50;;;;;;;;;;5111773;28;20020;-63
2022/04/12 13:26:29;;;;;;;12.07;1.70;;;;;;;;;;5111382;28;20043;-63
2022/04/12 13:28:55;;;;;;;6.80;1.60;;;;;;;;;;5111751;28;20043;-62
2022/04/12 13:31:21;;;;;;;5.20;1.55;;;;;;;;;;5111762;28;20035;-62
2022/04/12 13:33:47;;;;;;;5.78;1.10;;;;;;;;;;5111712;28;20031;-63
2022/04/12 13:36:13;;;;;;;6.93;1.73;;;;;;;;;;5111522;28;20110;-63
2022/04/12 13:38:39;;;;;;;4.03;1.38;;;;;;;;;;5111585;28;20031;-65
2022/04/12 13:41:05;;;;;;;4.78;1.17;;;;;;;;;;5111611;28;20031;-65
2022/04/12 13:43:32;;;;;;;5.00;1.17;;;;;;;;;;5111194;28;20071;-65
2022/04/12 13:45:58;;;;;;;8.65;1.50;;;;;;;;;;5104710;28;20502;-61
2022/04/12 13:48:24;;;;;;;6.72;1.42;;;;;;;;;;5112579;28;20028;-62
2022/04/12 13:50:51;;;;;;;10.85;1.63;;;;;;;;;;5115319;28;20060;-62
2022/04/12 13:53:17;;;;;;;5.32;1.52;;;;;;;;;;5115405;28;20152;-62
2022/04/12 13:55:43;;;;;;;4.72;1.40;;;;;;;;;;5115447;28;20026;-63
2022/04/12 13:58:09;;;;;;;4.88;1.30;;;;;;;;;;5115067;28;20052;-62
2022/04/12 14:00:35;;;;;;;5.60;1.40;;;;;;;;;;5115150;28;20028;-64
2022/04/12 14:03:01;;;;;;;4.80;1.15;;;;;;;;;;5115365;28;20110;-61
2022/04/12 14:05:28;;;;;;;6.50;1.92;;;;;;;;;;5114962;28;20076;-61
2022/04/12 14:07:57;;;;;;;9.65;1.50;;;;;;;;;;5115179;28;20241;-61
2022/04/12 14:10:23;;;;;;;7.88;1.40;;;;;;;;;;5114008;28;20026;-61
2022/04/12 14:12:49;;;;;;;6.78;1.35;;;;;;;;;;5115097;28;20054;-64
2022/04/12 14:15:15;;;;;;;5.13;1.20;;;;;;;;;;5114711;28;20024;-61
2022/04/12 14:17:41;;;;;;;6.95;1.48;;;;;;;;;;5114331;28;20108;-63
2022/04/12 14:20:08;;;;;;;16.52;1.77;;;;;;;;;;5114578;28;20012;-62
2022/04/12 14:22:35;;;;;;;5.63;1.73;;;;;;;;;;5114242;28;20382;-62
2022/04/12 14:25:01;;;;;;;6.72;1.40;;;;;;;;;;5114675;28;20065;-62
2022/04/12 14:27:27;;;;;;;12.57;1.70;;;;;;;;;;5114346;28;20031;-62
2022/04/12 14:29:53;;;;;;;4.05;1.35;;;;;;;;;;5113994;28;20024;-62
2022/04/12 14:32:19;;;;;;;4.93;1.95;;;;;;;;;;5114455;28;20076;-64
2022/04/12 14:34:45;;;;;;;5.57;1.52;;;;;;;;;;5114671;28;20080;-64
2022/04/12 14:37:11;;;;;;;9.07;1.80;;;;;;;;;;5114038;28;20493;-65
2022/04/12 14:39:37;;;;;;;24.67;10.98;;;;;;;;;;5114227;28;20471;-64
2022/04/12 14:42:04;;;;;;;453.58;222.65;;;;;;;;;;5114419;28;20180;-62
2022/04/12 14:44:30;;;;;;;303.60;137.25;;;;;;;;;;5110776;28;20487;-62